createdAt,value
2019-02-17T00:01:11.371Z,8.10
2019-02-17T00:03:39.915Z,8.20
2019-02-17T00:06:11.469Z,8.20
2019-02-17T00:08:40.060Z,8.20
2019-02-17T00:11:09.285Z,8.20
2019-02-17T00:13:37.921Z,8.10
2019-02-17T00:16:09.353Z,8.10
2019-02-17T00:18:40.716Z,8.10
2019-02-17T00:21:09.385Z,8.00
2019-02-17T00:23:41.076Z,8.00
2019-02-17T00:26:10.423Z,8.00
2019-02-17T00:28:40.042Z,8.00
2019-02-17T00:31:11.748Z,8.00
2019-02-17T00:33:40.314Z,8.00
2019-02-17T00:36:09.802Z,8.00
2019-02-17T00:38:41.367Z,7.90
2019-02-17T00:41:11.469Z,7.80
2019-02-17T00:43:41.581Z,7.70
2019-02-17T00:46:10.264Z,7.50
2019-02-17T00:48:43.757Z,7.30
2019-02-17T00:51:14.644Z,7.10
2019-02-17T00:53:46.183Z,6.90
2019-02-17T00:56:15.285Z,6.60
2019-02-17T00:58:44.319Z,6.40
2019-02-17T01:01:13.050Z,6.30
2019-02-17T01:03:42.369Z,6.20
2019-02-17T01:06:11.346Z,6.10
2019-02-17T01:08:41.732Z,5.90
2019-02-17T01:11:10.437Z,5.70
2019-02-17T01:13:39.088Z,5.70
2019-02-17T01:16:07.762Z,5.70
2019-02-17T01:18:36.329Z,5.60
2019-02-17T01:21:05.592Z,5.50
2019-02-17T01:23:34.274Z,5.40
2019-02-17T01:26:02.973Z,5.40
2019-02-17T01:28:31.525Z,5.40
2019-02-17T01:31:00.129Z,5.40
2019-02-17T01:33:31.815Z,5.30
2019-02-17T01:36:00.527Z,5.30
2019-02-17T01:38:29.109Z,5.40
2019-02-17T01:41:03.719Z,5.50
2019-02-17T01:43:38.690Z,5.50
2019-02-17T01:46:07.402Z,5.50
2019-02-17T01:48:40.755Z,5.40
2019-02-17T01:51:09.624Z,5.40
2019-02-17T01:53:40.948Z,5.20
2019-02-17T01:56:11.000Z,5.20
2019-02-17T01:58:39.561Z,5.20
2019-02-17T02:01:08.202Z,5.20
2019-02-17T02:03:36.800Z,5.10
2019-02-17T02:06:05.508Z,5.00
2019-02-17T02:08:35.332Z,5.10
2019-02-17T02:11:04.066Z,5.20
2019-02-17T02:13:32.649Z,5.00
2019-02-17T02:16:07.039Z,5.00
2019-02-17T02:18:36.638Z,4.90
2019-02-17T02:21:07.236Z,4.80
2019-02-17T02:23:36.256Z,4.80
2019-02-17T02:26:07.731Z,4.80
2019-02-17T02:28:37.826Z,4.60
2019-02-17T02:31:06.710Z,4.70
2019-02-17T02:33:35.844Z,4.70
2019-02-17T02:36:05.625Z,4.70
2019-02-17T02:38:34.195Z,4.70
2019-02-17T02:41:03.067Z,4.70
2019-02-17T02:43:31.705Z,4.70
2019-02-17T02:46:00.255Z,4.70
2019-02-17T02:48:28.942Z,4.50
2019-02-17T02:50:57.658Z,4.70
2019-02-17T02:53:26.216Z,4.80
2019-02-17T02:55:54.879Z,4.80
2019-02-17T02:58:23.445Z,4.80
2019-02-17T03:00:52.022Z,4.70
2019-02-17T03:03:20.686Z,4.60
2019-02-17T03:05:53.932Z,4.50
2019-02-17T03:08:22.842Z,4.50
2019-02-17T03:10:51.627Z,4.40
2019-02-17T03:13:20.393Z,4.40
2019-02-17T03:15:48.952Z,4.20
2019-02-17T03:18:17.542Z,4.20
2019-02-17T03:20:46.216Z,4.10
2019-02-17T03:23:14.780Z,4.20
2019-02-17T03:25:45.396Z,4.20
2019-02-17T03:28:13.583Z,4.30
2019-02-17T03:30:42.211Z,4.50
2019-02-17T03:33:10.891Z,4.50
2019-02-17T03:35:42.561Z,4.60
2019-02-17T03:38:11.135Z,4.70
2019-02-17T03:40:39.873Z,4.70
2019-02-17T03:43:08.690Z,5.10
2019-02-17T03:45:37.347Z,5.00
2019-02-17T03:48:07.845Z,5.00
2019-02-17T03:50:36.533Z,4.80
2019-02-17T03:53:06.695Z,4.70
2019-02-17T03:55:35.366Z,4.50
2019-02-17T03:58:04.083Z,4.30
2019-02-17T04:00:32.655Z,4.10
2019-02-17T04:03:01.249Z,4.10
2019-02-17T04:05:29.821Z,3.90
2019-02-17T04:07:58.443Z,3.80
2019-02-17T04:10:27.110Z,3.60
2019-02-17T04:12:55.813Z,3.60
2019-02-17T04:15:24.641Z,3.60
2019-02-17T04:17:53.312Z,3.40
2019-02-17T04:20:21.961Z,3.30
2019-02-17T04:22:51.050Z,3.30
2019-02-17T04:25:19.728Z,3.30
2019-02-17T04:27:48.433Z,3.40
2019-02-17T04:30:28.139Z,3.40
2019-02-17T04:32:47.363Z,3.40
2019-02-17T04:35:15.997Z,3.50
2019-02-17T04:37:44.564Z,3.50
2019-02-17T04:40:13.624Z,3.50
2019-02-17T04:42:42.386Z,3.40
2019-02-17T04:45:18.816Z,3.30
2019-02-17T04:47:49.578Z,3.20
2019-02-17T04:50:18.140Z,3.10
2019-02-17T04:52:46.819Z,3.00
2019-02-17T04:55:15.586Z,2.90
2019-02-17T04:57:44.153Z,2.80
2019-02-17T05:00:12.838Z,2.80
2019-02-17T05:02:41.531Z,2.80
2019-02-17T05:05:10.245Z,2.70
2019-02-17T05:07:38.909Z,2.70
2019-02-17T05:10:08.504Z,2.60
2019-02-17T05:12:37.064Z,2.60
2019-02-17T05:15:07.442Z,2.50
2019-02-17T05:17:36.473Z,2.50
2019-02-17T05:20:06.371Z,2.40
2019-02-17T05:22:34.986Z,2.40
2019-02-17T05:25:03.819Z,2.30
2019-02-17T05:27:32.449Z,2.30
2019-02-17T05:30:01.046Z,2.20
2019-02-17T05:32:29.688Z,2.20
2019-02-17T05:34:59.045Z,2.20
2019-02-17T05:37:28.341Z,2.10
2019-02-17T05:39:58.411Z,2.20
2019-02-17T05:42:27.038Z,2.20
2019-02-17T05:44:57.279Z,2.30
2019-02-17T05:47:25.853Z,2.40
2019-02-17T05:49:54.478Z,2.50
2019-02-17T05:52:23.105Z,2.50
2019-02-17T05:54:52.285Z,2.50
2019-02-17T05:57:20.825Z,2.60
2019-02-17T05:59:49.435Z,2.60
2019-02-17T06:02:18.403Z,2.50
2019-02-17T06:04:46.958Z,2.50
2019-02-17T06:07:20.303Z,2.50
2019-02-17T06:09:46.338Z,2.40
2019-02-17T06:12:15.007Z,2.40
2019-02-17T06:14:43.674Z,2.40
2019-02-17T06:17:12.248Z,2.40
2019-02-17T06:19:51.702Z,2.50
2019-02-17T06:22:20.399Z,2.30
2019-02-17T06:24:48.961Z,2.20
2019-02-17T06:27:17.640Z,2.20
2019-02-17T06:29:46.274Z,2.20
2019-02-17T06:32:14.829Z,2.20
2019-02-17T06:34:43.497Z,2.10
2019-02-17T06:37:12.078Z,2.20
2019-02-17T06:39:40.827Z,2.30
2019-02-17T06:42:10.381Z,2.40
2019-02-17T06:44:38.968Z,2.40
2019-02-17T06:47:09.255Z,2.40
2019-02-17T06:49:37.859Z,2.40
2019-02-17T06:52:06.434Z,2.20
2019-02-17T06:54:34.999Z,2.00
2019-02-17T06:57:05.300Z,2.00
2019-02-17T06:59:34.307Z,2.10
2019-02-17T07:02:03.449Z,2.10
2019-02-17T07:04:36.826Z,2.10
2019-02-17T07:07:05.745Z,2.10
2019-02-17T07:09:34.279Z,2.20
2019-02-17T07:12:02.980Z,2.30
2019-02-17T07:14:34.511Z,2.40
2019-02-17T07:17:03.331Z,2.50
2019-02-17T07:19:32.007Z,2.70
2019-02-17T07:22:04.641Z,2.80
2019-02-17T07:24:36.405Z,2.90
2019-02-17T07:27:05.523Z,3.00
2019-02-17T07:29:34.350Z,3.10
2019-02-17T07:32:04.796Z,3.10
2019-02-17T07:34:35.468Z,3.20
2019-02-17T07:37:04.164Z,3.40
2019-02-17T07:39:32.830Z,3.60
2019-02-17T07:42:01.396Z,3.70
2019-02-17T07:44:30.024Z,3.80
2019-02-17T07:46:58.696Z,3.80
2019-02-17T07:49:27.265Z,3.90
2019-02-17T07:51:56.246Z,4.00
2019-02-17T07:54:28.084Z,4.10
2019-02-17T07:56:58.813Z,4.30
2019-02-17T07:59:27.519Z,4.50
2019-02-17T08:01:56.240Z,4.50
2019-02-17T08:04:25.699Z,4.60
2019-02-17T08:06:54.283Z,4.70
2019-02-17T08:09:22.965Z,4.80
2019-02-17T08:11:51.542Z,4.90
2019-02-17T08:14:20.185Z,5.10
2019-02-17T08:16:49.077Z,5.30
2019-02-17T08:19:17.741Z,5.50
2019-02-17T08:21:46.385Z,5.80
2019-02-17T08:24:14.976Z,6.00
2019-02-17T08:26:45.769Z,6.10
2019-02-17T08:29:17.186Z,6.30
2019-02-17T08:31:54.939Z,6.70
2019-02-17T08:34:21.590Z,7.00
2019-02-17T08:36:50.176Z,7.20
2019-02-17T08:39:18.752Z,7.40
2019-02-17T08:41:49.455Z,7.60
2019-02-17T08:44:19.123Z,7.80
2019-02-17T08:46:47.616Z,8.00
2019-02-17T08:49:16.269Z,8.30
2019-02-17T08:51:45.186Z,8.60
2019-02-17T08:54:13.926Z,8.80
2019-02-17T08:56:42.848Z,9.00
2019-02-17T08:59:12.040Z,9.10
2019-02-17T09:01:46.235Z,9.20
2019-02-17T09:04:15.093Z,9.20
2019-02-17T09:06:43.929Z,9.30
2019-02-17T09:09:12.660Z,9.10
2019-02-17T09:11:41.373Z,9.10
2019-02-17T09:14:10.131Z,9.10
2019-02-17T09:16:38.845Z,9.30
2019-02-17T09:19:07.428Z,9.50
2019-02-17T09:21:40.390Z,9.70
2019-02-17T09:24:09.194Z,10.00
2019-02-17T09:26:38.027Z,10.40
2019-02-17T09:29:07.252Z,10.90
2019-02-17T09:31:36.248Z,11.40
2019-02-17T09:34:04.963Z,12.20
2019-02-17T09:36:33.893Z,12.60
2019-02-17T09:39:02.869Z,13.30
2019-02-17T09:41:31.438Z,14.10
2019-02-17T09:44:00.673Z,14.50
2019-02-17T09:46:30.535Z,14.50
2019-02-17T09:48:59.250Z,14.60
2019-02-17T09:51:32.682Z,14.60
2019-02-17T09:54:02.747Z,14.40
2019-02-17T09:56:31.682Z,14.20
2019-02-17T09:59:00.444Z,13.70
2019-02-17T10:01:33.276Z,13.50
2019-02-17T10:04:02.284Z,12.90
2019-02-17T10:06:32.855Z,12.80
2019-02-17T10:09:01.669Z,13.10
2019-02-17T10:11:30.309Z,13.40
2019-02-17T10:14:01.080Z,13.90
2019-02-17T10:16:31.831Z,14.60
2019-02-17T10:19:00.967Z,15.10
2019-02-17T10:21:32.676Z,15.90
2019-02-17T10:24:01.289Z,16.30
2019-02-17T10:26:31.802Z,16.70
2019-02-17T10:29:00.622Z,16.90
2019-02-17T10:31:29.394Z,17.20
2019-02-17T10:34:01.255Z,17.40
2019-02-17T10:36:33.168Z,17.30
2019-02-17T10:39:01.890Z,17.10
2019-02-17T10:41:30.549Z,16.70
2019-02-17T10:43:59.141Z,15.90
2019-02-17T10:46:33.929Z,15.40
2019-02-17T10:49:12.239Z,15.20
2019-02-17T10:51:44.128Z,15.20
2019-02-17T10:54:12.845Z,14.50
2019-02-17T10:56:41.560Z,14.30
2019-02-17T10:59:10.200Z,15.20
2019-02-17T11:01:38.949Z,15.20
2019-02-17T11:04:08.890Z,15.00
2019-02-17T11:06:37.457Z,15.00
2019-02-17T11:09:09.048Z,15.00
2019-02-17T11:11:38.955Z,15.10
2019-02-17T11:14:08.942Z,14.60
2019-02-17T11:16:38.219Z,14.30
2019-02-17T11:19:15.031Z,14.40
2019-02-17T11:21:47.859Z,14.30
2019-02-17T11:24:16.675Z,14.30
2019-02-17T11:26:45.401Z,14.20
2019-02-17T11:29:14.247Z,14.40
2019-02-17T11:31:43.124Z,14.60
2019-02-17T11:34:11.858Z,14.90
2019-02-17T11:36:40.813Z,15.00
2019-02-17T11:39:11.749Z,15.20
2019-02-17T11:41:44.613Z,15.50
2019-02-17T11:44:15.165Z,15.50
2019-02-17T11:46:44.085Z,15.80
2019-02-17T11:49:15.357Z,15.60
2019-02-17T11:51:45.896Z,16.00
2019-02-17T11:54:17.526Z,16.00
2019-02-17T11:56:46.171Z,15.90
2019-02-17T11:59:14.829Z,15.70
2019-02-17T12:01:43.524Z,15.30
2019-02-17T12:04:12.450Z,15.70
2019-02-17T12:06:44.122Z,16.10
2019-02-17T12:09:19.665Z,16.10
2019-02-17T12:11:48.348Z,16.50
2019-02-17T12:14:16.987Z,16.70
2019-02-17T12:16:47.671Z,17.10
2019-02-17T12:19:17.563Z,17.40
2019-02-17T12:21:48.087Z,17.70
2019-02-17T12:24:18.631Z,17.80
2019-02-17T12:26:50.146Z,18.10
2019-02-17T12:29:30.610Z,18.20
2019-02-17T12:31:59.279Z,17.80
2019-02-17T12:34:29.231Z,17.50
2019-02-17T12:36:57.831Z,17.30
2019-02-17T12:39:29.299Z,17.00
2019-02-17T12:42:04.873Z,16.80
2019-02-17T12:44:35.691Z,16.40
2019-02-17T12:47:06.814Z,16.30
2019-02-17T12:49:35.884Z,16.30
2019-02-17T12:52:04.892Z,16.20
2019-02-17T12:54:36.061Z,16.20
2019-02-17T12:57:10.754Z,16.70
2019-02-17T12:59:41.819Z,17.00
2019-02-17T13:02:16.223Z,17.40
2019-02-17T13:04:45.672Z,17.60
2019-02-17T13:07:14.405Z,17.60
2019-02-17T13:09:47.186Z,17.60
2019-02-17T13:12:18.656Z,18.00
2019-02-17T13:14:49.778Z,18.50
2019-02-17T13:17:21.706Z,18.90
2019-02-17T13:19:50.355Z,19.30
2019-02-17T13:22:20.524Z,19.60
2019-02-17T13:24:49.352Z,19.10
2019-02-17T13:27:19.802Z,19.10
2019-02-17T13:29:57.155Z,19.50
2019-02-17T13:32:28.116Z,19.60
2019-02-17T13:35:00.143Z,19.90
2019-02-17T13:37:30.294Z,20.30
2019-02-17T13:40:01.636Z,20.20
2019-02-17T13:42:33.336Z,19.80
2019-02-17T13:45:15.953Z,19.40
2019-02-17T13:47:44.758Z,19.30
2019-02-17T13:50:20.036Z,19.00
2019-02-17T13:52:49.077Z,18.90
2019-02-17T13:55:19.475Z,18.70
2019-02-17T13:57:48.184Z,18.60
2019-02-17T14:00:19.095Z,18.30
2019-02-17T14:02:48.177Z,18.20
2019-02-17T14:05:17.445Z,18.30
2019-02-17T14:07:48.888Z,17.80
2019-02-17T14:10:20.245Z,17.70
2019-02-17T14:12:50.821Z,17.60
2019-02-17T14:15:20.371Z,17.20
2019-02-17T14:17:50.725Z,17.00
2019-02-17T14:20:19.452Z,16.80
2019-02-17T14:22:48.205Z,16.90
2019-02-17T14:25:21.427Z,16.70
2019-02-17T14:27:50.285Z,16.80
2019-02-17T14:30:21.940Z,16.80
2019-02-17T14:32:50.870Z,16.90
2019-02-17T14:35:19.449Z,16.70
2019-02-17T14:37:51.413Z,16.50
2019-02-17T14:40:24.476Z,16.30
2019-02-17T14:42:58.580Z,16.20
2019-02-17T14:45:30.408Z,16.10
2019-02-17T14:48:00.592Z,16.00
2019-02-17T14:50:29.828Z,15.90
2019-02-17T14:53:02.055Z,15.90
2019-02-17T14:55:30.477Z,15.90
2019-02-17T14:58:05.564Z,15.90
2019-02-17T15:00:36.155Z,15.90
2019-02-17T15:03:09.964Z,15.80
2019-02-17T15:05:40.307Z,15.50
2019-02-17T15:08:15.138Z,15.30
2019-02-17T15:10:46.869Z,15.20
2019-02-17T15:13:15.611Z,15.20
2019-02-17T15:15:46.782Z,15.20
2019-02-17T15:18:21.240Z,15.20
2019-02-17T15:20:57.076Z,15.20
2019-02-17T15:23:25.651Z,15.20
2019-02-17T15:26:01.715Z,15.20
2019-02-17T15:28:30.320Z,15.20
2019-02-17T15:30:59.254Z,15.20
2019-02-17T15:33:28.329Z,15.00
2019-02-17T15:36:06.238Z,14.80
2019-02-17T15:38:34.899Z,14.50
2019-02-17T15:41:10.739Z,14.40
2019-02-17T15:43:43.593Z,14.30
2019-02-17T15:46:16.161Z,14.10
2019-02-17T15:48:46.743Z,14.00
2019-02-17T15:51:22.288Z,13.90
2019-02-17T15:53:58.683Z,13.60
2019-02-17T15:56:30.645Z,13.40
2019-02-17T15:58:59.288Z,13.20
2019-02-17T16:01:28.015Z,13.10
2019-02-17T16:03:57.187Z,13.00
2019-02-17T16:06:25.835Z,13.00
2019-02-17T16:08:54.715Z,12.90
2019-02-17T16:11:25.323Z,12.90
2019-02-17T16:13:58.540Z,12.90
2019-02-17T16:16:35.097Z,12.80
2019-02-17T16:19:08.161Z,12.80
2019-02-17T16:21:38.729Z,12.80
2019-02-17T16:24:07.690Z,12.80
2019-02-17T16:26:41.195Z,12.70
2019-02-17T16:29:10.137Z,12.70
2019-02-17T16:31:38.865Z,12.50
2019-02-17T16:34:08.077Z,12.50
2019-02-17T16:36:36.660Z,12.40
2019-02-17T16:39:08.413Z,12.40
2019-02-17T16:41:37.127Z,12.40
2019-02-17T16:44:05.814Z,12.30
2019-02-17T16:46:34.456Z,12.20
2019-02-17T16:49:07.943Z,12.20
2019-02-17T16:51:36.869Z,12.10
2019-02-17T16:54:11.248Z,12.00
2019-02-17T16:56:43.850Z,12.00
2019-02-17T16:59:12.195Z,11.80
2019-02-17T17:01:41.880Z,11.80
2019-02-17T17:04:10.696Z,11.70
2019-02-17T17:06:41.795Z,11.70
2019-02-17T17:09:10.752Z,11.60
2019-02-17T17:11:49.722Z,11.60
2019-02-17T17:14:20.462Z,11.50
2019-02-17T17:16:52.270Z,11.50
2019-02-17T17:19:23.184Z,11.60
2019-02-17T17:21:51.872Z,11.60
2019-02-17T17:24:23.540Z,11.50
2019-02-17T17:26:53.673Z,11.60
2019-02-17T17:29:22.246Z,11.50
2019-02-17T17:31:50.844Z,11.60
2019-02-17T17:34:19.647Z,11.60
2019-02-17T17:36:48.275Z,11.50
2019-02-17T17:39:18.786Z,11.50
2019-02-17T17:41:47.984Z,11.60
2019-02-17T17:44:17.075Z,11.50
2019-02-17T17:46:45.852Z,11.40
2019-02-17T17:49:19.265Z,11.40
2019-02-17T17:51:48.765Z,11.40
2019-02-17T17:54:17.659Z,11.30
2019-02-17T17:56:48.083Z,11.30
2019-02-17T17:59:21.539Z,11.30
2019-02-17T18:01:51.343Z,11.30
2019-02-17T18:04:20.222Z,11.30
2019-02-17T18:06:51.798Z,11.20
2019-02-17T18:09:39.796Z,11.20
2019-02-17T18:12:09.846Z,11.20
2019-02-17T18:14:38.418Z,11.10
2019-02-17T18:17:15.772Z,11.10
2019-02-17T18:19:50.643Z,11.00
2019-02-17T18:22:25.684Z,11.00
2019-02-17T18:24:54.230Z,11.00
2019-02-17T18:27:24.400Z,11.00
2019-02-17T18:29:54.598Z,11.00
2019-02-17T18:32:27.868Z,10.90
2019-02-17T18:35:03.256Z,11.00
2019-02-17T18:37:32.373Z,11.00
2019-02-17T18:40:02.693Z,10.90
2019-02-17T18:42:31.343Z,10.80
2019-02-17T18:45:03.884Z,10.70
2019-02-17T18:47:32.637Z,10.80
2019-02-17T18:50:01.581Z,10.80
2019-02-17T18:52:37.725Z,10.70
2019-02-17T18:55:08.567Z,10.70
2019-02-17T18:57:38.214Z,10.70
2019-02-17T19:00:27.631Z,10.70
2019-02-17T19:02:58.322Z,10.70
2019-02-17T19:05:32.139Z,10.60
2019-02-17T19:07:59.279Z,10.70
2019-02-17T19:13:17.467Z,10.60
2019-02-17T19:15:53.758Z,10.60
2019-02-17T19:18:24.385Z,10.50
2019-02-17T19:20:53.863Z,10.50
2019-02-17T19:23:23.699Z,10.50
2019-02-17T19:25:57.184Z,10.50
2019-02-17T19:28:32.735Z,10.50
2019-02-17T19:31:05.749Z,10.70
2019-02-17T19:33:34.369Z,10.60
2019-02-17T19:36:11.452Z,10.60
2019-02-17T19:38:42.081Z,10.60
2019-02-17T19:41:10.703Z,10.70
2019-02-17T19:43:42.325Z,10.80
2019-02-17T19:46:13.797Z,10.90
2019-02-17T19:48:45.396Z,10.90
2019-02-17T19:51:14.078Z,11.00
2019-02-17T19:53:42.643Z,10.90
2019-02-17T19:56:12.121Z,10.80
2019-02-17T19:58:43.992Z,10.80
2019-02-17T20:01:16.891Z,10.80
2019-02-17T20:03:53.276Z,10.80
2019-02-17T20:06:23.598Z,10.80
2019-02-17T20:08:55.122Z,10.80
2019-02-17T20:11:24.176Z,10.90
2019-02-17T20:13:55.598Z,10.90
2019-02-17T20:16:25.779Z,10.90
2019-02-17T20:18:57.494Z,10.80
2019-02-17T20:21:26.362Z,10.80
2019-02-17T20:23:54.986Z,10.80
2019-02-17T20:26:23.952Z,10.70
2019-02-17T20:28:57.388Z,10.80
2019-02-17T20:31:23.025Z,10.80
2019-02-17T20:33:52.182Z,10.70
2019-02-17T20:36:21.077Z,10.80
2019-02-17T20:38:50.054Z,10.80
2019-02-17T20:41:19.591Z,10.80
2019-02-17T20:43:54.531Z,10.80
2019-02-17T20:46:26.818Z,10.80
2019-02-17T20:48:57.076Z,10.80
2019-02-17T20:51:31.661Z,10.70
2019-02-17T20:54:00.895Z,10.70
2019-02-17T20:56:33.156Z,10.70
2019-02-17T20:59:01.742Z,10.70
2019-02-17T21:01:30.572Z,10.60
2019-02-17T21:04:00.896Z,10.60
2019-02-17T21:06:29.981Z,10.50
2019-02-17T21:09:00.076Z,10.50
2019-02-17T21:11:29.295Z,10.40
2019-02-17T21:14:00.084Z,10.30
2019-02-17T21:16:30.401Z,10.30
2019-02-17T21:19:05.134Z,10.20
2019-02-17T21:21:33.886Z,10.20
2019-02-17T21:24:06.420Z,10.20
2019-02-17T21:26:38.853Z,10.10
2019-02-17T21:29:07.770Z,10.10
2019-02-17T21:31:36.410Z,10.20
2019-02-17T21:34:06.803Z,10.20
2019-02-17T21:36:37.558Z,10.20
2019-02-17T21:39:06.854Z,10.20
2019-02-17T21:41:35.567Z,10.20
2019-02-17T21:44:06.995Z,10.20
2019-02-17T21:46:35.549Z,10.10
2019-02-17T21:49:05.289Z,10.10
2019-02-17T21:51:34.300Z,10.00
2019-02-17T21:54:04.862Z,10.00
2019-02-17T21:56:36.354Z,10.00
2019-02-17T21:59:07.203Z,10.00
2019-02-17T22:01:38.766Z,10.00
2019-02-17T22:04:08.900Z,10.00
2019-02-17T22:06:37.615Z,9.90
2019-02-17T22:09:06.519Z,9.90
2019-02-17T22:11:35.347Z,9.80
2019-02-17T22:14:04.292Z,9.80
2019-02-17T22:16:34.411Z,9.90
2019-02-17T22:19:03.351Z,9.90
2019-02-17T22:21:32.235Z,9.90
2019-02-17T22:24:00.857Z,9.80
2019-02-17T22:26:29.617Z,9.80
2019-02-17T22:28:58.949Z,9.80
2019-02-17T22:31:29.078Z,9.80
2019-02-17T22:34:06.879Z,9.70
2019-02-17T22:36:43.639Z,9.70
2019-02-17T22:39:09.023Z,9.60
2019-02-17T22:41:39.185Z,9.60
2019-02-17T22:44:07.924Z,9.50
2019-02-17T22:46:36.497Z,9.50
2019-02-17T22:49:05.195Z,9.40
2019-02-17T22:51:34.575Z,9.40
2019-02-17T22:54:03.195Z,9.40
2019-02-17T22:56:31.765Z,9.40
2019-02-17T22:59:02.655Z,9.40
2019-02-17T23:01:31.487Z,9.30
2019-02-17T23:04:00.420Z,9.30
2019-02-17T23:06:29.451Z,9.30
2019-02-17T23:08:58.264Z,9.20
2019-02-17T23:11:26.878Z,9.10
2019-02-17T23:13:55.604Z,9.00
2019-02-17T23:16:24.189Z,8.90
2019-02-17T23:18:53.122Z,8.70
2019-02-17T23:21:22.122Z,8.60
2019-02-17T23:23:50.758Z,8.40
2019-02-17T23:26:19.601Z,8.40
2019-02-17T23:28:48.464Z,8.30
2019-02-17T23:31:17.017Z,8.40
2019-02-17T23:33:45.642Z,8.40
2019-02-17T23:36:14.419Z,8.40
2019-02-17T23:38:46.804Z,8.50
2019-02-17T23:41:15.328Z,8.60
2019-02-17T23:43:44.301Z,8.50
2019-02-17T23:46:13.062Z,8.60
2019-02-17T23:48:43.538Z,8.60
2019-02-17T23:51:11.960Z,8.50
2019-02-17T23:53:41.433Z,8.60
2019-02-17T23:56:10.054Z,8.50
2019-02-17T23:58:39.178Z,8.40
